createdAt,value
2018-05-08T00:00:53.596Z,99.90
2018-05-08T00:03:21.271Z,99.90
2018-05-08T00:05:48.967Z,99.90
2018-05-08T00:08:17.441Z,99.90
2018-05-08T00:10:45.115Z,99.90
2018-05-08T00:13:13.563Z,99.90
2018-05-08T00:15:41.254Z,99.90
2018-05-08T00:18:09.707Z,99.90
2018-05-08T00:20:37.374Z,99.90
2018-05-08T00:23:05.111Z,99.90
2018-05-08T00:25:32.782Z,99.90
2018-05-08T00:28:00.483Z,99.90
2018-05-08T00:30:28.156Z,99.90
2018-05-08T00:32:56.635Z,99.90
2018-05-08T00:35:25.087Z,99.90
2018-05-08T00:37:52.825Z,99.90
2018-05-08T00:40:20.494Z,99.90
2018-05-08T00:42:48.182Z,99.90
2018-05-08T00:45:15.911Z,99.90
2018-05-08T00:47:43.603Z,99.90
2018-05-08T00:50:11.278Z,99.90
2018-05-08T00:52:38.976Z,99.90
2018-05-08T00:55:07.487Z,99.90
2018-05-08T00:57:35.263Z,99.90
2018-05-08T01:00:03.041Z,99.90
2018-05-08T01:02:30.763Z,99.90
2018-05-08T01:04:58.489Z,99.90
2018-05-08T01:07:26.183Z,99.90
2018-05-08T01:09:53.868Z,99.90
2018-05-08T01:12:21.647Z,99.90
2018-05-08T01:14:49.315Z,99.90
2018-05-08T01:17:17.018Z,99.90
2018-05-08T01:19:44.698Z,99.90
2018-05-08T01:22:13.222Z,99.90
2018-05-08T01:24:40.987Z,99.90
2018-05-08T01:27:08.743Z,99.90
2018-05-08T01:29:36.420Z,99.90
2018-05-08T01:32:04.106Z,99.90
2018-05-08T01:34:31.857Z,99.90
2018-05-08T01:36:59.530Z,99.90
2018-05-08T01:39:27.204Z,99.90
2018-05-08T01:41:54.948Z,99.90
2018-05-08T01:44:22.594Z,99.90
2018-05-08T01:46:50.267Z,99.90
2018-05-08T01:49:18.041Z,99.90
2018-05-08T01:51:45.719Z,99.90
2018-05-08T01:54:13.434Z,99.90
2018-05-08T01:56:41.111Z,99.90
2018-05-08T01:59:08.809Z,99.90
2018-05-08T02:01:36.511Z,99.90
2018-05-08T02:04:04.199Z,99.90
2018-05-08T02:06:31.871Z,99.90
2018-05-08T02:08:59.560Z,99.90
2018-05-08T02:11:27.267Z,99.90
2018-05-08T02:13:54.955Z,99.90
2018-05-08T02:16:22.736Z,99.90
2018-05-08T02:18:50.456Z,99.90
2018-05-08T02:21:18.870Z,99.90
2018-05-08T02:23:46.751Z,99.90
2018-05-08T02:26:14.411Z,99.90
2018-05-08T02:28:42.113Z,99.90
2018-05-08T02:31:09.785Z,99.90
2018-05-08T02:33:38.322Z,99.90
2018-05-08T02:36:05.967Z,99.90
2018-05-08T02:38:33.723Z,99.90
2018-05-08T02:41:01.400Z,99.90
2018-05-08T02:43:29.109Z,99.90
2018-05-08T02:45:57.544Z,99.90
2018-05-08T02:48:25.251Z,99.90
2018-05-08T02:50:53.775Z,99.90
2018-05-08T02:53:21.573Z,99.90
2018-05-08T02:55:49.219Z,99.90
2018-05-08T02:58:16.976Z,99.90
2018-05-08T03:00:44.747Z,99.90
2018-05-08T03:03:12.492Z,99.90
2018-05-08T03:05:40.166Z,99.90
2018-05-08T03:08:07.872Z,99.90
2018-05-08T03:10:36.318Z,99.90
2018-05-08T03:13:04.018Z,99.90
2018-05-08T03:15:32.463Z,99.90
2018-05-08T03:18:00.174Z,99.90
2018-05-08T03:20:28.615Z,99.90
2018-05-08T03:22:57.084Z,99.90
2018-05-08T03:25:24.772Z,99.90
2018-05-08T03:27:52.486Z,99.90
2018-05-08T03:30:20.179Z,99.90
2018-05-08T03:32:47.851Z,99.90
2018-05-08T03:35:15.591Z,99.90
2018-05-08T03:37:43.349Z,99.90
2018-05-08T03:40:11.113Z,99.90
2018-05-08T03:42:38.779Z,99.90
2018-05-08T03:45:06.566Z,99.90
2018-05-08T03:47:34.216Z,99.90
2018-05-08T03:50:01.927Z,99.90
2018-05-08T03:52:30.370Z,99.90
2018-05-08T03:54:58.064Z,99.90
2018-05-08T03:57:25.800Z,99.90
2018-05-08T03:59:53.430Z,99.90
2018-05-08T04:02:27.042Z,99.90
2018-05-08T04:05:00.667Z,99.90
2018-05-08T04:07:34.274Z,99.90
2018-05-08T04:10:01.985Z,99.90
2018-05-08T04:12:30.407Z,99.90
2018-05-08T04:14:58.157Z,99.90
2018-05-08T04:17:25.842Z,99.90
2018-05-08T04:19:53.530Z,99.90
2018-05-08T04:22:21.971Z,99.90
2018-05-08T04:24:49.741Z,99.90
2018-05-08T04:27:19.297Z,99.90
2018-05-08T04:29:47.764Z,99.90
2018-05-08T04:32:15.444Z,99.90
2018-05-08T04:34:43.988Z,99.90
2018-05-08T04:37:11.646Z,99.90
2018-05-08T04:39:39.328Z,99.90
2018-05-08T04:42:07.007Z,99.90
2018-05-08T04:44:35.457Z,99.90
2018-05-08T04:47:03.152Z,99.90
2018-05-08T04:49:30.868Z,99.90
2018-05-08T04:51:58.515Z,99.90
2018-05-08T04:54:26.311Z,99.90
2018-05-08T04:56:53.983Z,99.90
2018-05-08T04:59:21.706Z,99.90
2018-05-08T05:01:49.506Z,99.90
2018-05-08T05:04:17.153Z,99.90
2018-05-08T05:06:44.843Z,99.90
2018-05-08T05:09:12.527Z,99.90
2018-05-08T05:11:41.060Z,99.90
2018-05-08T05:14:08.819Z,99.90
2018-05-08T05:16:36.610Z,99.90
2018-05-08T05:19:04.269Z,99.90
2018-05-08T05:21:31.958Z,99.90
2018-05-08T05:23:59.655Z,99.90
2018-05-08T05:26:27.334Z,99.90
2018-05-08T05:28:55.024Z,99.90
2018-05-08T05:31:22.711Z,99.90
2018-05-08T05:33:50.394Z,99.90
2018-05-08T05:36:18.859Z,99.90
2018-05-08T05:38:46.551Z,99.90
2018-05-08T05:41:14.230Z,99.90
2018-05-08T05:43:41.898Z,99.90
2018-05-08T05:46:09.594Z,99.90
2018-05-08T05:48:37.327Z,99.90
2018-05-08T05:51:05.022Z,99.90
2018-05-08T05:53:32.710Z,99.90
2018-05-08T05:56:01.263Z,99.90
2018-05-08T05:58:29.025Z,99.90
2018-05-08T06:00:56.792Z,99.90
2018-05-08T06:03:24.440Z,99.90
2018-05-08T06:05:52.138Z,99.90
2018-05-08T06:08:19.814Z,99.90
2018-05-08T06:10:48.257Z,99.90
2018-05-08T06:13:16.006Z,99.90
2018-05-08T06:15:43.670Z,99.90
2018-05-08T06:18:11.417Z,99.90
2018-05-08T06:20:39.066Z,99.90
2018-05-08T06:23:06.859Z,99.90
2018-05-08T06:25:34.531Z,99.90
2018-05-08T06:28:02.225Z,99.90
2018-05-08T06:30:29.912Z,99.90
2018-05-08T06:32:58.431Z,99.90
2018-05-08T06:35:26.320Z,99.90
2018-05-08T06:37:54.058Z,99.90
2018-05-08T06:40:21.739Z,99.90
2018-05-08T06:42:49.515Z,99.90
2018-05-08T06:45:17.250Z,99.90
2018-05-08T06:47:45.015Z,99.90
2018-05-08T06:50:12.691Z,99.90
2018-05-08T06:52:40.472Z,99.90
2018-05-08T06:55:08.120Z,99.90
2018-05-08T06:57:35.888Z,99.90
2018-05-08T07:00:03.635Z,99.90
2018-05-08T07:02:31.326Z,99.90
2018-05-08T07:04:59.098Z,99.90
2018-05-08T07:07:26.755Z,99.90
2018-05-08T07:09:54.526Z,99.90
2018-05-08T07:12:22.214Z,99.90
2018-05-08T07:14:50.651Z,99.90
2018-05-08T07:17:18.415Z,99.90
2018-05-08T07:19:46.168Z,99.90
2018-05-08T07:22:13.848Z,99.90
2018-05-08T07:24:41.537Z,99.90
2018-05-08T07:27:09.263Z,99.90
2018-05-08T07:29:36.939Z,99.90
2018-05-08T07:32:04.602Z,99.90
2018-05-08T07:34:32.356Z,99.90
2018-05-08T07:37:00.115Z,99.90
2018-05-08T07:39:27.804Z,99.90
2018-05-08T07:41:55.476Z,99.90
2018-05-08T07:44:23.188Z,99.90
2018-05-08T07:46:51.682Z,99.90
2018-05-08T07:49:19.476Z,99.90
2018-05-08T07:51:47.129Z,99.90
2018-05-08T07:54:14.892Z,99.90
2018-05-08T07:56:42.547Z,99.90
2018-05-08T07:59:10.236Z,99.90
2018-05-08T08:01:37.910Z,99.90
2018-05-08T08:04:06.394Z,99.90
2018-05-08T08:06:34.061Z,99.90
2018-05-08T08:09:01.763Z,99.90
2018-05-08T08:11:29.536Z,99.90
2018-05-08T08:13:57.265Z,99.90
2018-05-08T08:16:25.791Z,99.90
2018-05-08T08:18:53.480Z,99.90
2018-05-08T08:21:21.184Z,99.90
2018-05-08T08:23:49.794Z,99.90
2018-05-08T08:26:17.466Z,99.90
2018-05-08T08:28:45.156Z,99.90
2018-05-08T08:31:12.823Z,99.90
2018-05-08T08:33:40.680Z,99.90
2018-05-08T08:36:08.327Z,99.90
2018-05-08T08:38:36.111Z,99.90
2018-05-08T08:41:03.774Z,99.90
2018-05-08T08:43:31.518Z,99.90
2018-05-08T08:45:59.279Z,99.90
2018-05-08T08:48:26.967Z,99.90
2018-05-08T08:50:54.651Z,99.90
2018-05-08T08:53:22.370Z,99.90
2018-05-08T08:55:50.053Z,99.90
2018-05-08T08:58:17.791Z,99.90
2018-05-08T09:00:45.479Z,99.90
2018-05-08T09:03:13.224Z,99.90
2018-05-08T09:05:40.923Z,99.90
2018-05-08T09:08:08.647Z,99.90
2018-05-08T09:10:36.339Z,99.90
2018-05-08T09:13:04.071Z,99.90
2018-05-08T09:15:31.804Z,99.90
2018-05-08T09:17:59.467Z,99.90
2018-05-08T09:20:27.221Z,96.40
2018-05-08T09:22:54.913Z,95.00
2018-05-08T09:25:22.613Z,93.40
2018-05-08T09:27:51.935Z,90.20
2018-05-08T09:30:19.732Z,90.20
2018-05-08T09:32:47.416Z,90.00
2018-05-08T09:35:15.094Z,91.10
2018-05-08T09:37:42.822Z,89.80
2018-05-08T09:40:10.608Z,88.20
2018-05-08T09:42:38.285Z,88.20
2018-05-08T09:45:06.015Z,87.40
2018-05-08T09:47:33.687Z,86.80
2018-05-08T09:50:01.435Z,88.90
2018-05-08T09:52:29.111Z,87.60
2018-05-08T09:54:56.867Z,88.10
2018-05-08T09:57:24.630Z,82.30
2018-05-08T09:59:52.326Z,82.60
2018-05-08T10:02:19.995Z,82.30
2018-05-08T10:04:47.689Z,85.10
2018-05-08T10:07:15.407Z,81.50
2018-05-08T10:09:43.095Z,81.00
2018-05-08T10:12:11.639Z,80.70
2018-05-08T10:14:39.395Z,80.40
2018-05-08T10:17:07.058Z,79.20
2018-05-08T10:19:34.747Z,79.90
2018-05-08T10:22:02.486Z,82.50
2018-05-08T10:24:30.247Z,81.70
2018-05-08T10:26:57.918Z,82.40
2018-05-08T10:29:25.670Z,81.50
2018-05-08T10:31:53.342Z,82.00
2018-05-08T10:34:21.057Z,81.70
2018-05-08T10:36:50.003Z,81.00
2018-05-08T10:39:17.667Z,81.00
2018-05-08T10:41:45.362Z,76.60
2018-05-08T10:44:13.035Z,77.20
2018-05-08T10:46:40.734Z,80.10
2018-05-08T10:49:08.424Z,82.90
2018-05-08T10:51:36.126Z,77.00
2018-05-08T10:54:03.850Z,74.50
2018-05-08T10:56:31.531Z,71.30
2018-05-08T10:58:59.194Z,67.80
2018-05-08T11:01:26.902Z,71.40
2018-05-08T11:03:54.568Z,73.10
2018-05-08T11:06:22.259Z,71.10
2018-05-08T11:08:49.928Z,65.60
2018-05-08T11:11:17.715Z,67.00
2018-05-08T11:13:45.399Z,67.30
2018-05-08T11:16:13.091Z,67.30
2018-05-08T11:18:40.771Z,65.50
2018-05-08T11:21:08.545Z,68.50
2018-05-08T11:23:36.326Z,67.10
2018-05-08T11:26:04.826Z,67.00
2018-05-08T11:28:32.470Z,67.00
2018-05-08T11:31:00.214Z,68.20
2018-05-08T11:33:27.879Z,67.50
2018-05-08T11:35:55.568Z,65.20
2018-05-08T11:38:23.306Z,64.40
2018-05-08T11:40:51.070Z,66.40
2018-05-08T11:43:18.739Z,63.50
2018-05-08T11:45:46.441Z,61.80
2018-05-08T11:48:14.119Z,62.10
2018-05-08T11:50:42.574Z,61.30
2018-05-08T11:53:10.241Z,61.30
2018-05-08T11:55:37.931Z,64.60
2018-05-08T11:58:06.374Z,66.00
2018-05-08T12:00:34.058Z,66.00
2018-05-08T12:03:01.776Z,65.90
2018-05-08T12:05:29.548Z,66.10
2018-05-08T12:07:57.219Z,66.70
2018-05-08T12:10:24.912Z,64.30
2018-05-08T12:12:52.639Z,62.30
2018-05-08T12:15:20.395Z,63.30
2018-05-08T12:17:48.091Z,57.00
2018-05-08T12:20:15.775Z,53.40
2018-05-08T12:22:43.466Z,49.20
2018-05-08T12:25:11.146Z,47.40
2018-05-08T12:27:38.929Z,43.10
2018-05-08T12:30:06.638Z,39.50
2018-05-08T12:32:34.498Z,37.30
2018-05-08T12:35:02.004Z,34.60
2018-05-08T12:37:29.798Z,33.30
2018-05-08T12:39:57.447Z,33.20
2018-05-08T12:42:25.139Z,31.70
2018-05-08T12:44:52.846Z,30.60
2018-05-08T12:47:21.303Z,29.10
2018-05-08T12:49:49.744Z,29.20
2018-05-08T12:52:17.523Z,29.20
2018-05-08T12:54:45.191Z,29.30
2018-05-08T12:57:12.919Z,29.70
2018-05-08T12:59:40.592Z,29.40
2018-05-08T13:02:08.344Z,28.90
2018-05-08T13:04:36.043Z,29.40
2018-05-08T13:07:03.787Z,29.30
2018-05-08T13:09:31.464Z,29.30
2018-05-08T13:11:59.155Z,30.00
2018-05-08T13:14:27.682Z,28.70
2018-05-08T13:16:55.472Z,28.70
2018-05-08T13:19:23.124Z,28.40
2018-05-08T13:21:50.807Z,28.80
2018-05-08T13:24:18.522Z,28.70
2018-05-08T13:26:46.205Z,28.30
2018-05-08T13:29:13.966Z,27.90
2018-05-08T13:31:41.646Z,28.80
2018-05-08T13:34:09.400Z,28.80
2018-05-08T13:36:37.120Z,28.20
2018-05-08T13:39:05.707Z,28.10
2018-05-08T13:41:34.142Z,27.20
2018-05-08T13:44:01.844Z,27.20
2018-05-08T13:46:30.293Z,26.50
2018-05-08T13:48:57.972Z,26.50
2018-05-08T13:51:25.700Z,27.60
2018-05-08T13:53:53.415Z,27.30
2018-05-08T13:56:22.658Z,27.60
2018-05-08T13:58:50.434Z,27.50
2018-05-08T14:01:18.096Z,27.00
2018-05-08T14:03:45.787Z,27.20
2018-05-08T14:06:13.557Z,26.90
2018-05-08T14:08:41.306Z,27.60
2018-05-08T14:11:08.952Z,27.40
2018-05-08T14:13:36.660Z,28.00
2018-05-08T14:16:04.331Z,27.50
2018-05-08T14:18:32.783Z,28.20
2018-05-08T14:21:00.540Z,27.70
2018-05-08T14:23:28.194Z,28.20
2018-05-08T14:25:55.866Z,28.90
2018-05-08T14:28:23.563Z,27.30
2018-05-08T14:30:51.995Z,28.10
2018-05-08T14:33:19.742Z,28.00
2018-05-08T14:35:47.518Z,27.70
2018-05-08T14:38:15.205Z,27.80
2018-05-08T14:40:42.875Z,28.50
2018-05-08T14:43:10.567Z,29.00
2018-05-08T14:45:39.087Z,27.90
2018-05-08T14:48:06.888Z,27.90
2018-05-08T14:50:34.523Z,28.60
2018-05-08T14:53:02.205Z,28.70
2018-05-08T14:55:29.895Z,29.10
2018-05-08T14:57:57.567Z,28.70
2018-05-08T15:00:26.116Z,27.80
2018-05-08T15:02:53.791Z,27.80
2018-05-08T15:05:21.480Z,28.30
2018-05-08T15:07:49.934Z,28.40
2018-05-08T15:10:17.643Z,28.90
2018-05-08T15:12:45.311Z,28.40
2018-05-08T15:15:13.001Z,28.50
2018-05-08T15:17:40.672Z,28.70
2018-05-08T15:20:08.409Z,29.10
2018-05-08T15:22:36.092Z,28.80
2018-05-08T15:25:03.866Z,28.80
2018-05-08T15:27:31.528Z,29.20
2018-05-08T15:29:59.203Z,29.00
2018-05-08T15:32:26.878Z,28.80
2018-05-08T15:34:54.614Z,28.40
2018-05-08T15:37:22.358Z,28.30
2018-05-08T15:39:50.050Z,28.10
2018-05-08T15:42:17.728Z,27.90
2018-05-08T15:44:45.477Z,28.20
2018-05-08T15:47:13.149Z,28.50
2018-05-08T15:49:40.802Z,28.30
2018-05-08T15:52:08.475Z,28.60
2018-05-08T15:54:36.176Z,28.10
2018-05-08T15:57:04.612Z,28.10
2018-05-08T15:59:32.339Z,28.10
2018-05-08T16:01:59.995Z,29.20
2018-05-08T16:04:28.770Z,28.50
2018-05-08T16:06:56.438Z,28.20
2018-05-08T16:09:24.143Z,28.00
2018-05-08T16:11:51.838Z,28.40
2018-05-08T16:14:19.551Z,28.70
2018-05-08T16:16:47.241Z,28.30
2018-05-08T16:19:14.907Z,28.30
2018-05-08T16:21:42.604Z,28.20
2018-05-08T16:24:11.039Z,29.10
2018-05-08T16:26:38.781Z,29.10
2018-05-08T16:29:06.450Z,29.70
2018-05-08T16:31:34.222Z,28.50
2018-05-08T16:34:01.907Z,29.50
2018-05-08T16:36:29.598Z,29.00
2018-05-08T16:38:58.031Z,29.50
2018-05-08T16:41:25.822Z,29.40
2018-05-08T16:43:53.584Z,29.40
2018-05-08T16:46:21.347Z,29.50
2018-05-08T16:48:49.091Z,29.40
2018-05-08T16:51:16.895Z,29.30
2018-05-08T16:53:44.626Z,29.20
2018-05-08T16:56:12.471Z,29.70
2018-05-08T16:58:40.171Z,29.90
2018-05-08T17:01:07.937Z,29.00
2018-05-08T17:03:35.682Z,29.40
2018-05-08T17:06:03.369Z,30.50
2018-05-08T17:08:31.084Z,29.80
2018-05-08T17:10:59.527Z,30.30
2018-05-08T17:13:27.258Z,30.30
2018-05-08T17:15:54.947Z,30.70
2018-05-08T17:18:22.684Z,30.30
2018-05-08T17:20:50.375Z,30.00
2018-05-08T17:23:18.106Z,30.50
2018-05-08T17:25:45.820Z,30.70
2018-05-08T17:28:13.511Z,31.00
2018-05-08T17:30:41.301Z,31.20
2018-05-08T17:33:09.067Z,31.20
2018-05-08T17:35:36.745Z,32.60
2018-05-08T17:38:04.446Z,31.10
2018-05-08T17:40:32.898Z,31.60
2018-05-08T17:43:00.647Z,31.60
2018-05-08T17:45:28.319Z,32.60
2018-05-08T17:47:56.195Z,32.10
2018-05-08T17:50:23.871Z,33.10
2018-05-08T17:52:51.571Z,34.40
2018-05-08T17:55:19.239Z,34.10
2018-05-08T17:57:47.041Z,34.30
2018-05-08T18:00:14.751Z,34.10
2018-05-08T18:02:42.416Z,34.80
2018-05-08T18:05:10.853Z,35.20
2018-05-08T18:07:38.599Z,35.10
2018-05-08T18:10:06.404Z,35.70
2018-05-08T18:12:34.087Z,36.10
2018-05-08T18:15:02.525Z,36.50
2018-05-08T18:17:30.284Z,36.40
2018-05-08T18:19:58.762Z,38.90
2018-05-08T18:22:26.768Z,38.30
2018-05-08T18:24:54.459Z,39.10
2018-05-08T18:27:22.926Z,39.30
2018-05-08T18:29:50.592Z,39.30
2018-05-08T18:32:19.063Z,42.90
2018-05-08T18:34:46.768Z,42.80
2018-05-08T18:37:14.448Z,43.70
2018-05-08T18:39:42.205Z,43.80
2018-05-08T18:42:09.903Z,45.30
2018-05-08T18:44:37.647Z,45.30
2018-05-08T18:47:05.330Z,47.10
2018-05-08T18:49:33.079Z,47.00
2018-05-08T18:52:01.474Z,48.60
2018-05-08T18:54:29.154Z,49.20
2018-05-08T18:56:56.892Z,48.40
2018-05-08T18:59:24.641Z,47.70
2018-05-08T19:01:52.338Z,49.50
2018-05-08T19:04:20.067Z,50.00
2018-05-08T19:06:47.836Z,49.70
2018-05-08T19:09:15.607Z,50.00
2018-05-08T19:11:43.280Z,50.70
2018-05-08T19:14:10.959Z,51.60
2018-05-08T19:16:38.638Z,51.00
2018-05-08T19:19:12.072Z,52.00
2018-05-08T19:21:39.750Z,52.90
2018-05-08T19:24:13.151Z,52.10
2018-05-08T19:26:41.083Z,52.30
2018-05-08T19:29:15.353Z,51.90
2018-05-08T19:31:42.999Z,51.80
2018-05-08T19:34:10.691Z,52.20
2018-05-08T19:36:44.182Z,52.10
2018-05-08T19:39:11.941Z,52.40
2018-05-08T19:41:39.551Z,54.00
2018-05-08T19:44:08.161Z,56.50
2018-05-08T19:46:35.937Z,56.40
2018-05-08T19:49:03.986Z,56.00
2018-05-08T19:51:32.492Z,55.00
2018-05-08T19:54:00.309Z,55.00
2018-05-08T19:56:28.839Z,56.40
2018-05-08T19:58:56.531Z,56.40
2018-05-08T20:01:24.197Z,55.70
2018-05-08T20:03:51.895Z,56.30
2018-05-08T20:06:19.592Z,56.50
2018-05-08T20:08:47.346Z,56.90
2018-05-08T20:11:15.013Z,57.20
2018-05-08T20:13:42.702Z,57.00
2018-05-08T20:16:10.411Z,56.50
2018-05-08T20:18:38.927Z,56.70
2018-05-08T20:21:06.598Z,56.60
2018-05-08T20:23:34.386Z,57.90
2018-05-08T20:26:02.180Z,58.10
2018-05-08T20:28:30.728Z,57.40
2018-05-08T20:30:58.378Z,57.40
2018-05-08T20:33:26.065Z,57.50
2018-05-08T20:35:53.798Z,57.90
2018-05-08T20:38:21.527Z,59.70
2018-05-08T20:40:49.187Z,58.80
2018-05-08T20:43:17.652Z,58.50
2018-05-08T20:45:46.095Z,60.40
2018-05-08T20:48:13.754Z,59.80
2018-05-08T20:50:41.514Z,59.40
2018-05-08T20:53:09.195Z,59.40
2018-05-08T20:55:36.933Z,59.50
2018-05-08T20:58:04.571Z,59.80
2018-05-08T21:00:32.367Z,60.80
2018-05-08T21:03:00.130Z,60.40
2018-05-08T21:05:27.923Z,60.90
2018-05-08T21:07:55.556Z,62.30
2018-05-08T21:10:23.249Z,62.40
2018-05-08T21:12:50.986Z,64.00
2018-05-08T21:15:18.676Z,65.80
2018-05-08T21:17:46.357Z,64.30
2018-05-08T21:20:14.051Z,63.00
2018-05-08T21:22:41.744Z,66.10
2018-05-08T21:25:09.521Z,66.70
2018-05-08T21:27:42.979Z,66.10
2018-05-08T21:30:16.615Z,66.50
2018-05-08T21:32:44.382Z,66.30
2018-05-08T21:35:12.082Z,65.40
2018-05-08T21:37:39.756Z,65.50
2018-05-08T21:40:08.373Z,65.80
2018-05-08T21:42:36.051Z,65.80
2018-05-08T21:45:03.745Z,69.20
2018-05-08T21:47:31.399Z,68.20
2018-05-08T21:49:59.136Z,69.00
2018-05-08T21:52:26.807Z,72.50
2018-05-08T21:54:54.500Z,69.20
2018-05-08T21:57:22.223Z,70.60
2018-05-08T21:59:49.914Z,69.80
2018-05-08T22:02:17.651Z,70.50
2018-05-08T22:04:45.427Z,70.60
2018-05-08T22:07:13.115Z,71.70
2018-05-08T22:09:40.886Z,71.90
2018-05-08T22:12:08.559Z,74.10
2018-05-08T22:14:36.250Z,74.10
2018-05-08T22:17:03.918Z,77.40
2018-05-08T22:19:31.711Z,77.50
2018-05-08T22:21:59.374Z,79.50
2018-05-08T22:24:27.042Z,79.00
2018-05-08T22:26:54.798Z,80.00
2018-05-08T22:29:22.476Z,83.50
2018-05-08T22:31:50.465Z,82.00
2018-05-08T22:34:18.139Z,83.00
2018-05-08T22:36:46.658Z,83.40
2018-05-08T22:39:14.336Z,82.80
2018-05-08T22:41:42.022Z,86.00
2018-05-08T22:44:09.791Z,88.50
2018-05-08T22:46:37.531Z,90.10
2018-05-08T22:49:05.217Z,87.40
2018-05-08T22:51:32.964Z,88.60
2018-05-08T22:54:00.632Z,89.30
2018-05-08T22:56:28.410Z,90.80
2018-05-08T22:58:56.066Z,91.50
2018-05-08T23:01:23.751Z,90.50
2018-05-08T23:03:51.430Z,91.60
2018-05-08T23:06:19.958Z,91.90
2018-05-08T23:08:47.721Z,92.00
2018-05-08T23:11:15.318Z,92.40
2018-05-08T23:13:42.991Z,94.10
2018-05-08T23:16:11.447Z,94.80
2018-05-08T23:18:40.380Z,94.90
2018-05-08T23:21:08.072Z,94.90
2018-05-08T23:23:35.742Z,94.10
2018-05-08T23:26:04.199Z,95.90
2018-05-08T23:28:32.746Z,95.80
2018-05-08T23:31:00.529Z,96.30
2018-05-08T23:33:28.190Z,97.30
2018-05-08T23:35:55.891Z,97.30
2018-05-08T23:38:23.578Z,98.40
2018-05-08T23:40:52.100Z,99.50
2018-05-08T23:43:19.765Z,99.50
2018-05-08T23:45:47.456Z,99.40
2018-05-08T23:48:15.205Z,97.90
2018-05-08T23:50:42.867Z,99.90
2018-05-08T23:53:10.633Z,99.90
2018-05-08T23:55:38.280Z,99.90
2018-05-08T23:58:05.970Z,99.90
